Time;durP1;ratioP1;P1;durP2;ratioP2;P2;SDS_P1;SDS_P2;PMS_P1;PMS_P2;Temp;Humidity;BMP_temperature;BMP_pressure;BME280_temperature;BME280_humidity;BME280_pressure;Samples;Min_cycle;Max_cycle;Signal;HPM_P1;HPM_P2
2021/09/09 16:49:02;;;;;;;3.13;1.02;;;23.70;97.60;;;;;;4916133;24;20050;-92
2021/09/09 16:51:54;;;;;;;3.90;1.20;;;23.50;98.30;;;;;;4886900;29;20059;-92
2021/09/09 16:54:41;;;;;;;4.63;1.13;;;23.20;98.20;;;;;;4857350;29;20049;-92
2021/09/09 16:57:27;;;;;;;4.18;1.15;;;23.20;98.40;;;;;;4894060;29;20056;-91
2021/09/09 17:00:13;;;;;;;2.10;1.10;;;23.10;98.60;;;;;;4889954;29;20044;-92
2021/09/09 17:02:46;;;;;;;4.40;1.23;;;23.10;98.60;;;;;;4890797;29;20069;-92
2021/09/09 17:05:30;;;;;;;6.63;1.23;;;23.10;98.70;;;;;;4863130;29;20052;-88
2021/09/09 17:08:02;;;;;;;5.00;1.25;;;23.00;98.90;;;;;;4874361;29;20045;-86
2021/09/09 17:10:31;;;;;;;5.15;1.20;;;23.10;99.00;;;;;;4883455;29;20064;-86
2021/09/09 17:13:01;;;;;;;5.20;1.55;;;22.90;98.90;;;;;;4878942;29;20149;-89
2021/09/09 17:15:44;;;;;;;6.22;1.58;;;22.90;99.00;;;;;;4865917;29;20065;-89
2021/09/09 17:18:27;;;;;;;5.93;1.52;;;22.90;99.40;;;;;;4876558;29;20055;-89
2021/09/09 17:21:07;;;;;;;9.90;1.10;;;23.20;99.20;;;;;;4882223;29;20045;-90
2021/09/09 17:23:45;;;;;;;5.30;2.67;;;23.30;99.10;;;;;;4860897;29;20063;-88
2021/09/09 17:26:37;;;;;;;7.30;1.70;;;23.30;98.80;;;;;;4867460;29;20053;-88
2021/09/09 17:29:28;;;;;;;7.38;1.95;;;23.20;99.00;;;;;;4868417;29;20063;-91
2021/09/09 17:31:58;;;;;;;5.57;0.90;;;23.00;99.00;;;;;;4862650;29;20056;-89
2021/09/09 17:35:12;;;;;;;5.40;1.42;;;22.80;99.30;;;;;;4877154;29;20053;-84
2021/09/09 17:37:45;;;;;;;2.00;0.95;;;22.70;99.30;;;;;;4871510;29;20068;-88
2021/09/09 17:40:19;;;;;;;5.93;1.17;;;22.50;99.40;;;;;;4861149;29;20071;-87
2021/09/09 17:43:07;;;;;;;3.67;1.30;;;22.40;99.90;;;;;;4857556;29;20061;-86
2021/09/09 17:45:47;;;;;;;2.90;1.20;;;22.40;99.90;;;;;;4852392;29;20056;-87
2021/09/09 17:48:37;;;;;;;4.95;1.25;;;22.30;99.90;;;;;;4854949;29;20146;-87
2021/09/09 17:51:22;;;;;;;6.63;1.35;;;22.40;99.90;;;;;;4880736;29;20065;-87
2021/09/09 17:54:01;;;;;;;13.25;1.63;;;22.10;99.90;;;;;;4864487;29;20061;-89
2021/09/09 17:56:52;;;;;;;7.10;1.30;;;22.10;99.90;;;;;;4861953;29;20045;-88
2021/09/09 17:59:36;;;;;;;5.15;1.23;;;22.00;99.90;;;;;;4865506;29;20071;-88
2021/09/09 18:02:47;;;;;;;6.60;1.40;;;22.10;99.90;;;;;;4907489;29;20033;-87
2021/09/09 18:05:51;;;;;;;7.55;1.45;;;22.20;99.90;;;;;;4874975;29;20053;-89
2021/09/09 18:08:26;;;;;;;6.05;1.15;;;22.20;99.90;;;;;;4905956;29;20045;-87
2021/09/09 18:11:32;;;;;;;5.68;2.40;;;22.20;99.90;;;;;;4868683;29;20057;-89
2021/09/09 18:14:17;;;;;;;6.50;2.17;;;22.10;99.90;;;;;;4889271;29;20048;-87
2021/09/09 18:16:51;;;;;;;2.63;1.23;;;21.90;99.90;;;;;;4871441;29;20068;-89
2021/09/09 18:19:29;;;;;;;4.32;1.52;;;22.70;99.90;;;;;;4862640;29;20057;-89
2021/09/09 18:22:00;;;;;;;2.50;1.45;;;21.50;99.90;;;;;;4908944;29;20049;-90
2021/09/09 18:24:44;;;;;;;5.68;2.42;;;21.50;99.90;;;;;;4892373;29;20055;-89
2021/09/09 18:27:42;;;;;;;4.30;1.20;;;20.50;99.90;;;;;;4873812;29;20059;-88
2021/09/09 18:30:37;;;;;;;6.72;1.60;;;21.30;99.90;;;;;;4881336;29;20057;-86
2021/09/09 18:33:09;;;;;;;4.55;1.42;;;21.20;99.90;;;;;;4893136;29;20041;-87
2021/09/09 18:35:46;;;;;;;3.97;1.35;;;21.10;99.90;;;;;;4871481;29;20064;-89
2021/09/09 18:38:18;;;;;;;6.70;2.00;;;21.00;99.90;;;;;;4903689;29;20061;-88
2021/09/09 18:40:51;;;;;;;5.07;1.50;;;20.90;99.90;;;;;;4860584;29;20733;-87
2021/09/09 18:43:22;;;;;;;14.05;1.80;;;20.90;99.90;;;;;;4860461;29;20061;-86
2021/09/09 18:46:00;;;;;;;10.35;2.15;;;20.80;99.90;;;;;;4865461;29;20059;-89
2021/09/09 18:48:40;;;;;;;10.07;2.97;;;20.70;99.90;;;;;;4862667;29;20063;-89
2021/09/09 18:51:15;;;;;;;6.75;2.00;;;20.60;99.90;;;;;;4878398;29;20053;-89
2021/09/09 18:54:01;;;;;;;6.30;1.88;;;20.60;99.90;;;;;;4860353;29;20049;-86
2021/09/09 18:56:49;;;;;;;13.52;3.08;;;20.60;99.90;;;;;;4879979;29;20955;-88
2021/09/09 18:59:17;;;;;;;11.38;3.80;;;20.50;99.90;;;;;;4881172;29;20390;-86
2021/09/09 19:01:49;;;;;;;13.60;2.88;;;20.40;99.90;;;;;;4882359;29;20057;-85
2021/09/09 19:04:19;;;;;;;4.85;2.00;;;20.40;99.90;;;;;;4848518;29;20061;-86
2021/09/09 19:06:46;;;;;;;11.75;2.58;;;20.30;99.90;;;;;;4848190;29;20413;-86
2021/09/09 19:09:16;;;;;;;4.93;2.00;;;20.30;99.90;;;;;;4867867;29;20095;-87
2021/09/09 19:11:44;;;;;;;8.63;2.30;;;20.30;99.90;;;;;;4854306;29;20065;-88
2021/09/09 19:14:14;;;;;;;6.18;1.92;;;20.20;99.90;;;;;;4881450;29;20057;-87
2021/09/09 19:17:03;;;;;;;6.70;2.50;;;20.20;99.90;;;;;;4884355;29;20053;-85
2021/09/09 19:19:37;;;;;;;8.57;2.15;;;20.10;99.90;;;;;;4856697;29;20060;-86
2021/09/09 19:22:07;;;;;;;14.88;2.15;;;20.10;99.90;;;;;;4852840;29;20061;-88
2021/09/09 19:24:37;;;;;;;3.95;1.45;;;20.10;99.90;;;;;;4861573;29;20057;-88
2021/09/09 19:27:05;;;;;;;3.25;1.70;;;20.00;99.90;;;;;;4871225;29;20053;-87
2021/09/09 19:29:33;;;;;;;3.30;1.58;;;19.90;99.90;;;;;;4842285;29;20064;-85
2021/09/09 19:32:21;;;;;;;4.00;1.60;;;19.90;99.90;;;;;;4859761;29;20072;-85
2021/09/09 19:34:54;;;;;;;4.30;1.50;;;20.10;99.90;;;;;;4882064;29;20056;-88
2021/09/09 19:37:29;;;;;;;3.33;1.63;;;19.80;99.90;;;;;;4876411;29;20053;-87
2021/09/09 19:39:59;;;;;;;8.68;2.00;;;19.80;99.90;;;;;;4873808;29;20068;-87
2021/09/09 19:42:29;;;;;;;5.15;2.38;;;19.80;99.90;;;;;;4873029;29;20520;-87
2021/09/09 19:45:00;;;;;;;8.10;2.10;;;19.70;99.90;;;;;;4849444;29;20053;-87
2021/09/09 19:47:39;;;;;;;6.07;1.75;;;19.70;99.90;;;;;;4873117;29;20056;-87
2021/09/09 19:50:17;;;;;;;7.97;1.77;;;19.60;99.90;;;;;;4888531;29;20060;-86
2021/09/09 19:52:51;;;;;;;7.47;1.88;;;19.60;99.90;;;;;;4876088;29;20061;-88
2021/09/09 19:55:22;;;;;;;3.03;1.63;;;19.60;99.90;;;;;;4869777;29;20077;-85
2021/09/09 19:57:55;;;;;;;13.57;2.47;;;19.50;99.90;;;;;;4873172;29;20049;-87
2021/09/09 20:00:29;;;;;;;8.52;2.38;;;19.50;99.90;;;;;;4862318;29;20053;-87
2021/09/09 20:03:01;;;;;;;10.25;4.57;;;19.50;99.90;;;;;;4830340;29;20076;-88
2021/09/09 20:05:56;;;;;;;8.13;1.95;;;19.50;99.90;;;;;;4861234;29;20072;-86
2021/09/09 20:08:40;;;;;;;6.72;2.00;;;19.40;99.90;;;;;;4866396;29;20067;-89
2021/09/09 20:11:10;;;;;;;7.35;2.50;;;18.10;99.90;;;;;;4867851;29;20055;-88
2021/09/09 20:13:39;;;;;;;6.85;2.10;;;19.40;99.90;;;;;;4873110;29;20049;-89
2021/09/09 20:16:11;;;;;;;8.20;2.15;;;19.40;99.90;;;;;;4894162;29;20045;-87
2021/09/09 20:19:02;;;;;;;10.63;2.42;;;19.40;99.90;;;;;;4879909;29;20051;-88
2021/09/09 20:21:58;;;;;;;11.70;3.05;;;19.30;99.90;;;;;;5140849;27;20774;-87
2021/09/09 20:24:28;;;;;;;8.30;2.15;;;19.30;99.90;;;;;;5082294;28;20048;-89
2021/09/09 20:27:02;;;;;;;15.63;2.08;;;19.30;99.90;;;;;;5071359;28;20048;-86
2021/09/09 20:29:33;;;;;;;10.02;2.60;;;19.30;99.90;;;;;;5073364;28;20058;-87
2021/09/09 20:32:04;;;;;;;6.60;2.80;;;19.20;99.90;;;;;;5074211;28;20055;-87
2021/09/09 20:34:33;;;;;;;5.85;1.90;;;19.20;99.90;;;;;;5067681;28;20052;-88
2021/09/09 20:37:03;;;;;;;2.88;1.67;;;19.20;99.90;;;;;;5094681;28;20493;-86
2021/09/09 20:39:31;;;;;;;8.00;1.92;;;19.20;99.90;;;;;;5066210;28;20054;-87
2021/09/09 20:42:01;;;;;;;6.40;2.50;;;19.00;99.90;;;;;;5096231;28;20040;-87
2021/09/09 20:44:32;;;;;;;7.30;2.05;;;19.10;99.90;;;;;;5075192;28;20054;-86
2021/09/09 20:47:01;;;;;;;10.30;2.17;;;19.10;99.90;;;;;;5074586;28;20051;-86
2021/09/09 20:49:30;;;;;;;5.45;2.35;;;19.10;99.90;;;;;;5086141;28;20037;-86
2021/09/09 20:52:02;;;;;;;4.90;2.35;;;19.00;99.90;;;;;;5059011;28;20056;-85
2021/09/09 20:54:30;;;;;;;6.47;1.90;;;19.00;99.90;;;;;;5082907;28;20039;-88
2021/09/09 20:56:58;;;;;;;8.65;1.90;;;19.00;99.90;;;;;;5066033;28;20068;-87
2021/09/09 20:59:26;;;;;;;6.07;2.35;;;19.00;99.90;;;;;;5076903;28;20048;-86
2021/09/09 21:01:56;;;;;;;6.95;2.13;;;18.90;99.90;;;;;;5097071;28;20055;-86
2021/09/09 21:04:29;;;;;;;9.25;2.25;;;18.90;99.90;;;;;;5116604;28;20526;-86
2021/09/09 21:06:57;;;;;;;5.72;2.03;;;19.80;99.90;;;;;;5090195;28;20056;-86
2021/09/09 21:09:25;;;;;;;9.68;2.08;;;18.90;99.90;;;;;;5041877;28;20088;-85
2021/09/09 21:11:54;;;;;;;7.25;2.08;;;18.90;99.90;;;;;;5058996;28;20049;-86
2021/09/09 21:14:22;;;;;;;9.43;2.30;;;18.90;99.90;;;;;;5051114;28;20088;-87
2021/09/09 21:16:50;;;;;;;5.15;2.30;;;18.90;99.90;;;;;;5070691;28;20059;-87
2021/09/09 21:19:20;;;;;;;7.18;2.40;;;18.80;99.90;;;;;;5062625;28;20866;-86
2021/09/09 21:21:50;;;;;;;5.47;2.27;;;18.80;99.90;;;;;;5038895;28;20057;-86
2021/09/09 21:24:18;;;;;;;7.82;2.03;;;18.80;99.90;;;;;;5056298;28;20045;-87
2021/09/09 21:26:49;;;;;;;9.18;2.22;;;18.80;99.90;;;;;;5061797;28;20056;-87
2021/09/09 21:29:17;;;;;;;5.90;2.00;;;18.80;99.90;;;;;;5058276;28;20053;-87
2021/09/09 21:31:45;;;;;;;6.43;2.13;;;18.70;99.90;;;;;;5057734;28;20052;-86
2021/09/09 21:34:13;;;;;;;11.20;3.22;;;18.70;99.90;;;;;;5058955;28;20041;-86
2021/09/09 21:36:44;;;;;;;7.10;2.10;;;19.90;99.90;;;;;;5041163;28;20045;-85
2021/09/09 21:39:12;;;;;;;10.68;2.20;;;18.60;99.90;;;;;;5050496;28;20053;-85
2021/09/09 21:41:40;;;;;;;3.67;2.05;;;18.60;99.90;;;;;;5048254;28;20060;-85
2021/09/09 21:44:10;;;;;;;10.88;2.85;;;18.60;99.90;;;;;;5045618;28;20041;-84
2021/09/09 21:46:38;;;;;;;7.78;2.95;;;18.60;99.90;;;;;;5045654;28;20061;-86
2021/09/09 21:49:11;;;;;;;7.90;1.77;;;18.60;99.90;;;;;;5052508;28;20461;-87
2021/09/09 21:51:40;;;;;;;8.43;2.00;;;18.60;99.90;;;;;;5051521;28;20400;-86
2021/09/09 21:54:12;;;;;;;6.30;2.28;;;18.50;99.90;;;;;;5055864;28;20040;-86
2021/09/09 21:56:49;;;;;;;6.72;2.42;;;18.50;99.90;;;;;;5051788;28;20055;-86
2021/09/09 21:59:17;;;;;;;;;;;18.20;99.90;;;;;;5031535;28;20053;-86
2021/09/09 22:01:45;;;;;;;9.23;4.15;;;18.40;99.90;;;;;;5050921;28;19928;-88
2021/09/09 22:04:14;;;;;;;5.40;1.83;;;17.90;99.90;;;;;;5052759;28;20060;-88
2021/09/09 22:06:42;;;;;;;6.07;2.35;;;18.40;99.90;;;;;;5055348;28;20037;-85
2021/09/09 22:09:11;;;;;;;6.57;1.90;;;18.40;99.90;;;;;;5048354;28;20056;-87
2021/09/09 22:11:39;;;;;;;6.63;2.47;;;18.30;99.90;;;;;;5034231;28;20503;-88
2021/09/09 22:14:08;;;;;;;4.45;2.15;;;18.30;99.90;;;;;;5046406;28;20052;-86
2021/09/09 22:16:38;;;;;;;3.17;1.88;;;18.30;99.90;;;;;;5060317;28;20048;-89
2021/09/09 22:19:06;;;;;;;4.97;1.73;;;18.20;99.90;;;;;;5046781;28;20052;-84
2021/09/09 22:21:34;;;;;;;2.63;1.75;;;18.20;99.90;;;;;;5044348;28;20049;-88
2021/09/09 22:24:04;;;;;;;5.85;2.30;;;18.20;99.90;;;;;;5049207;28;20056;-88
2021/09/09 22:26:32;;;;;;;12.13;2.10;;;18.10;99.90;;;;;;5062458;28;20060;-87
2021/09/09 22:29:01;;;;;;;7.22;2.28;;;18.10;99.90;;;;;;5050237;28;20052;-85
2021/09/09 22:31:29;;;;;;;6.65;2.13;;;18.10;99.90;;;;;;5059900;28;20056;-85
2021/09/09 22:33:56;;;;;;;7.00;2.55;;;18.10;99.90;;;;;;5060921;28;20049;-90
2021/09/09 22:36:24;;;;;;;10.43;2.17;;;18.10;99.90;;;;;;5055241;28;20045;-89
2021/09/09 22:38:53;;;;;;;3.10;1.83;;;18.00;99.90;;;;;;5060843;28;20040;-88
2021/09/09 22:41:22;;;;;;;5.85;2.50;;;18.00;99.90;;;;;;5064333;28;20041;-90
2021/09/09 22:43:50;;;;;;;4.32;1.85;;;18.00;99.90;;;;;;5061759;28;20071;-89
2021/09/09 22:46:19;;;;;;;6.25;1.73;;;18.00;99.90;;;;;;5045944;28;20053;-89
2021/09/09 22:48:48;;;;;;;5.85;1.95;;;18.00;99.90;;;;;;5062255;28;20045;-90
2021/09/09 22:51:16;;;;;;;4.15;2.28;;;18.00;99.90;;;;;;5037057;28;20081;-86
2021/09/09 22:53:47;;;;;;;4.47;2.00;;;18.00;99.90;;;;;;5058886;28;20683;-90
2021/09/09 22:56:15;;;;;;;3.33;2.10;;;18.00;99.90;;;;;;5056387;28;20053;-89
2021/09/09 22:58:42;;;;;;;6.95;1.92;;;18.00;99.90;;;;;;5049421;28;20041;-89
2021/09/09 23:01:14;;;;;;;9.77;2.47;;;18.00;99.90;;;;;;5045929;28;20060;-89
2021/09/09 23:03:44;;;;;;;6.00;2.13;;;18.00;99.90;;;;;;5059240;28;20041;-86
2021/09/09 23:06:12;;;;;;;9.80;2.28;;;18.00;99.90;;;;;;5043841;28;20049;-89
2021/09/09 23:08:41;;;;;;;6.10;2.00;;;18.00;99.90;;;;;;5046007;28;20045;-89
2021/09/09 23:11:10;;;;;;;8.65;2.70;;;18.00;99.90;;;;;;5057080;28;20045;-86
2021/09/09 23:13:38;;;;;;;6.68;2.22;;;18.00;99.90;;;;;;5057942;28;20392;-89
2021/09/09 23:16:06;;;;;;;10.18;2.35;;;18.00;99.90;;;;;;5040442;28;20425;-88
2021/09/09 23:18:36;;;;;;;5.38;2.03;;;18.00;99.90;;;;;;5038999;28;20069;-87
2021/09/09 23:21:04;;;;;;;6.40;1.98;;;18.00;99.90;;;;;;5020167;28;20049;-87
2021/09/09 23:23:32;;;;;;;5.00;3.08;;;18.00;99.90;;;;;;5028128;28;20041;-85
2021/09/09 23:26:01;;;;;;;6.80;1.98;;;18.00;99.90;;;;;;5050175;28;20065;-88
2021/09/09 23:28:30;;;;;;;6.05;2.08;;;18.00;99.90;;;;;;5038408;28;20060;-87
2021/09/09 23:31:00;;;;;;;7.38;3.03;;;18.00;99.90;;;;;;5058477;28;20049;-87
2021/09/09 23:33:28;;;;;;;9.70;2.67;;;18.00;99.90;;;;;;5055742;28;20060;-86
2021/09/09 23:35:56;;;;;;;7.20;2.17;;;18.00;99.90;;;;;;5037952;28;20067;-86
2021/09/09 23:38:24;;;;;;;12.95;3.50;;;18.00;99.90;;;;;;5041544;28;20045;-86
2021/09/09 23:40:52;;;;;;;4.80;2.15;;;18.00;99.90;;;;;;5054371;28;20060;-89
2021/09/09 23:43:19;;;;;;;4.03;1.80;;;18.00;99.90;;;;;;5038901;28;20057;-88
2021/09/09 23:45:47;;;;;;;6.18;2.00;;;18.10;99.90;;;;;;5040477;28;20037;-86
2021/09/09 23:48:16;;;;;;;5.25;1.42;;;18.10;99.90;;;;;;5048868;28;20052;-87
2021/09/09 23:50:44;;;;;;;12.55;2.22;;;18.10;99.90;;;;;;5040654;28;20136;-84
2021/09/09 23:53:11;;;;;;;5.32;1.60;;;18.20;99.90;;;;;;5048789;28;20431;-88
2021/09/09 23:55:39;;;;;;;6.53;1.80;;;18.20;99.90;;;;;;5043386;28;20053;-86
2021/09/09 23:58:12;;;;;;;9.98;1.92;;;18.20;99.90;;;;;;5039984;28;20044;-88
